Time;durP1;ratioP1;P1;durP2;ratioP2;P2;SDS_P1;SDS_P2;PMS_P1;PMS_P2;Temp;Humidity;BMP_temperature;BMP_pressure;BME280_temperature;BME280_humidity;BME280_pressure;Samples;Min_cycle;Max_cycle;Signal;HPM_P1;HPM_P2
2023/12/02 00:01:51;;;;;;;21.17;11.35;;;-1.10;99.90;;;;;;5064885;28;20055;-48
2023/12/02 00:04:16;;;;;;;19.48;10.73;;;-1.10;99.90;;;;;;5054066;28;20028;-46
2023/12/02 00:06:42;;;;;;;18.17;10.85;;;-1.10;99.90;;;;;;5051157;28;20025;-44
2023/12/02 00:09:08;;;;;;;17.83;10.27;;;-1.00;99.90;;;;;;5051158;28;20373;-45
2023/12/02 00:11:34;;;;;;;22.33;12.25;;;-1.10;99.90;;;;;;5051023;28;20054;-45
2023/12/02 00:14:00;;;;;;;17.00;10.60;;;-1.00;99.90;;;;;;5050885;28;20033;-50
2023/12/02 00:16:25;;;;;;;16.73;9.25;;;-1.00;99.90;;;;;;5051919;28;20059;-50
2023/12/02 00:18:51;;;;;;;15.10;8.43;;;-1.00;99.90;;;;;;5059958;28;20032;-56
2023/12/02 00:21:16;;;;;;;16.02;7.45;;;-1.00;99.90;;;;;;5064256;28;20136;-49
2023/12/02 00:23:42;;;;;;;17.58;8.95;;;-1.00;99.90;;;;;;5070924;28;20448;-46
2023/12/02 00:26:08;;;;;;;16.95;8.82;;;-1.00;99.90;;;;;;5071226;28;20036;-48
2023/12/02 00:28:34;;;;;;;16.08;8.70;;;-1.10;99.90;;;;;;5070585;28;20062;-53
2023/12/02 00:30:59;;;;;;;17.05;7.57;;;-1.10;99.90;;;;;;5070883;28;20025;-51
2023/12/02 00:33:25;;;;;;;11.70;7.35;;;-1.10;99.90;;;;;;5052704;28;20169;-45
2023/12/02 00:35:51;;;;;;;15.75;7.82;;;-1.10;99.90;;;;;;5070772;28;20488;-45
2023/12/02 00:38:16;;;;;;;18.60;9.65;;;-1.00;99.90;;;;;;5027087;28;1265043;-48
2023/12/02 00:40:42;;;;;;;21.25;8.80;;;-1.00;99.90;;;;;;5071777;28;20020;-44
2023/12/02 00:43:07;;;;;;;14.27;8.43;;;-0.90;99.90;;;;;;5071461;28;20024;-49
2023/12/02 00:45:33;;;;;;;17.63;8.13;;;-0.90;99.90;;;;;;5086737;28;20052;-44
2023/12/02 00:47:59;;;;;;;13.70;7.30;;;-0.80;99.90;;;;;;5071553;28;20018;-47
2023/12/02 00:50:24;;;;;;;12.52;7.47;;;-0.80;99.90;;;;;;5071283;28;20040;-45
2023/12/02 00:52:50;;;;;;;19.08;8.48;;;-0.80;99.90;;;;;;5071501;28;20024;-47
2023/12/02 00:55:15;;;;;;;15.55;6.97;;;-0.70;99.90;;;;;;5071097;28;20025;-49
2023/12/02 00:57:41;;;;;;;17.35;7.97;;;-0.70;99.90;;;;;;5070555;28;20515;-46
2023/12/02 01:00:08;;;;;;;16.05;7.78;;;-0.70;99.90;;;;;;5053133;28;20042;-51
2023/12/02 01:02:34;;;;;;;19.60;8.52;;;-0.60;99.90;;;;;;5071248;28;20106;-46
2023/12/02 01:05:00;;;;;;;17.65;8.52;;;-0.50;99.90;;;;;;5071175;28;20043;-45
2023/12/02 01:07:25;;;;;;;19.73;8.35;;;-0.50;99.90;;;;;;5070918;28;20039;-45
2023/12/02 01:09:51;;;;;;;15.57;7.80;;;-0.50;99.90;;;;;;5071038;28;20025;-51
2023/12/02 01:12:16;;;;;;;17.30;8.07;;;-0.40;99.90;;;;;;5071121;28;20024;-46
2023/12/02 01:14:42;;;;;;;18.00;7.90;;;-0.40;99.90;;;;;;5070533;28;20025;-47
2023/12/02 01:17:08;;;;;;;21.50;8.68;;;-0.40;99.90;;;;;;5070945;28;20048;-51
2023/12/02 01:19:34;;;;;;;15.82;6.97;;;-0.40;99.90;;;;;;5070695;28;20084;-53
2023/12/02 01:21:59;;;;;;;16.77;7.57;;;-0.40;99.90;;;;;;5070868;28;20028;-54
2023/12/02 01:24:25;;;;;;;13.38;6.78;;;-0.40;99.90;;;;;;5070913;28;20051;-46
2023/12/02 01:26:50;;;;;;;14.85;7.72;;;-0.40;99.90;;;;;;5070709;28;20016;-44
2023/12/02 01:29:16;;;;;;;15.80;7.95;;;-0.40;99.90;;;;;;5070622;28;20032;-50
2023/12/02 01:31:42;;;;;;;17.48;8.45;;;-0.40;99.90;;;;;;5070694;28;20373;-55
2023/12/02 01:34:07;;;;;;;15.68;7.47;;;-0.40;99.90;;;;;;5052804;28;20400;-50
2023/12/02 01:36:33;;;;;;;13.25;7.07;;;-0.40;99.90;;;;;;5070547;28;20489;-44
2023/12/02 01:38:59;;;;;;;17.95;8.07;;;-0.30;99.90;;;;;;5070287;28;20680;-52
2023/12/02 01:41:24;;;;;;;18.02;8.85;;;-0.30;99.90;;;;;;5070631;28;20021;-52
2023/12/02 01:43:50;;;;;;;14.52;7.07;;;-0.20;99.90;;;;;;5070229;28;20442;-50
2023/12/02 01:46:16;;;;;;;16.98;7.35;;;-0.10;99.90;;;;;;5070503;28;20534;-49
2023/12/02 01:48:42;;;;;;;18.27;7.60;;;-0.10;99.90;;;;;;5070426;28;20134;-48
2023/12/02 01:51:08;;;;;;;17.13;8.40;;;-0.10;99.90;;;;;;5070583;28;20052;-49
2023/12/02 01:53:33;;;;;;;15.20;8.02;;;0.00;99.90;;;;;;5052193;28;20485;-47
2023/12/02 01:55:59;;;;;;;14.82;7.05;;;-0.10;99.90;;;;;;5070257;28;20037;-48
2023/12/02 01:58:25;;;;;;;15.65;7.35;;;0.00;99.90;;;;;;5070086;28;20021;-47
2023/12/02 02:00:50;;;;;;;16.02;7.70;;;-0.10;99.90;;;;;;5070551;28;20043;-48
2023/12/02 02:03:16;;;;;;;15.05;6.97;;;-0.10;99.90;;;;;;5070125;28;20453;-45
2023/12/02 02:05:44;;;;;;;18.70;7.35;;;-0.10;99.90;;;;;;5070216;28;20082;-55
2023/12/02 02:08:10;;;;;;;15.38;7.65;;;-0.20;99.90;;;;;;5070038;28;20036;-50
2023/12/02 02:10:35;;;;;;;16.38;8.32;;;-0.30;99.90;;;;;;5070054;28;20029;-47
2023/12/02 02:13:01;;;;;;;18.45;7.03;;;-0.30;99.90;;;;;;5069567;28;20020;-49
2023/12/02 02:15:27;;;;;;;17.90;7.55;;;-0.40;99.90;;;;;;5069996;28;20082;-49
2023/12/02 02:17:52;;;;;;;18.00;7.78;;;-0.40;99.90;;;;;;5069173;28;20062;-45
2023/12/02 02:20:18;;;;;;;16.70;7.65;;;-0.50;99.90;;;;;;5069924;28;20024;-45
2023/12/02 02:22:44;;;;;;;17.95;7.97;;;-0.50;99.90;;;;;;5070198;28;20031;-48
2023/12/02 02:25:09;;;;;;;12.05;6.55;;;-0.50;99.90;;;;;;5070084;28;20477;-50
2023/12/02 02:27:35;;;;;;;19.85;7.65;;;-0.50;99.90;;;;;;5069790;28;20029;-43
2023/12/02 02:30:01;;;;;;;16.27;7.90;;;-0.50;99.90;;;;;;5062960;28;20523;-48
2023/12/02 02:32:26;;;;;;;17.33;7.07;;;-0.40;99.90;;;;;;5069959;28;20085;-44
2023/12/02 02:34:52;;;;;;;12.73;7.22;;;-0.40;99.90;;;;;;5069550;28;20500;-46
2023/12/02 02:37:18;;;;;;;15.52;7.80;;;-0.40;99.90;;;;;;5069792;28;20059;-47
2023/12/02 02:39:44;;;;;;;19.13;7.82;;;-0.30;99.90;;;;;;5069569;28;20021;-50
2023/12/02 02:42:10;;;;;;;14.68;7.10;;;-0.30;99.90;;;;;;5069563;28;20150;-51
2023/12/02 02:44:36;;;;;;;16.35;8.00;;;-0.30;99.90;;;;;;5069541;28;20021;-45
2023/12/02 02:47:02;;;;;;;19.40;8.13;;;-0.30;99.90;;;;;;5069538;28;20033;-53
2023/12/02 02:49:28;;;;;;;16.08;7.03;;;-0.30;99.90;;;;;;5069568;28;20051;-47
2023/12/02 02:51:54;;;;;;;17.73;8.60;;;-0.30;99.90;;;;;;5069427;28;20029;-47
2023/12/02 02:54:19;;;;;;;16.52;7.07;;;-0.30;99.90;;;;;;5069720;28;20053;-48
2023/12/02 02:56:45;;;;;;;15.50;7.90;;;-0.30;99.90;;;;;;5069229;28;20029;-44
2023/12/02 02:59:10;;;;;;;18.05;7.75;;;-0.20;99.90;;;;;;5069322;28;20021;-47
2023/12/02 03:01:39;;;;;;;15.77;7.38;;;-0.20;99.90;;;;;;5069394;28;20036;-48
2023/12/02 03:04:04;;;;;;;15.68;6.53;;;-0.10;99.90;;;;;;5069615;28;20036;-45
2023/12/02 03:06:30;;;;;;;18.20;8.82;;;-0.10;99.90;;;;;;5069690;28;20020;-46
2023/12/02 03:08:56;;;;;;;18.63;8.55;;;0.00;99.90;;;;;;5069611;28;20019;-46
2023/12/02 03:11:21;;;;;;;15.93;7.93;;;0.10;99.90;;;;;;5069157;28;20141;-46
2023/12/02 03:13:47;;;;;;;19.13;8.05;;;0.20;99.90;;;;;;5069445;28;20074;-49
2023/12/02 03:16:13;;;;;;;17.42;8.18;;;0.30;99.90;;;;;;5069386;28;20033;-53
2023/12/02 03:18:39;;;;;;;23.00;8.55;;;0.30;99.90;;;;;;5051353;28;20032;-50
2023/12/02 03:21:04;;;;;;;26.05;9.57;;;0.40;99.90;;;;;;5073003;28;20040;-50
2023/12/02 03:23:30;;;;;;;20.05;7.47;;;0.40;99.90;;;;;;5073121;28;20020;-52
2023/12/02 03:25:56;;;;;;;21.10;8.30;;;0.40;99.90;;;;;;5072802;28;20025;-53
2023/12/02 03:28:23;;;;;;;21.67;8.40;;;0.50;99.90;;;;;;5072827;28;20095;-48
2023/12/02 03:30:49;;;;;;;19.63;8.65;;;0.50;99.90;;;;;;5073025;28;20113;-44
2023/12/02 03:33:15;;;;;;;17.17;7.55;;;0.50;99.90;;;;;;5072953;28;20028;-49
2023/12/02 03:35:40;;;;;;;19.38;8.30;;;0.60;99.90;;;;;;5072924;28;20035;-44
2023/12/02 03:38:06;;;;;;;17.35;8.05;;;0.60;99.90;;;;;;5072735;28;20582;-45
2023/12/02 03:40:32;;;;;;;18.23;7.93;;;0.60;99.90;;;;;;5072992;28;20437;-48
2023/12/02 03:42:58;;;;;;;18.95;8.68;;;0.60;99.90;;;;;;5072688;28;20044;-45
2023/12/02 03:45:26;;;;;;;18.15;8.05;;;0.60;99.90;;;;;;5072829;28;20032;-43
2023/12/02 03:47:51;;;;;;;19.08;7.25;;;0.60;99.90;;;;;;5072603;28;20028;-44
2023/12/02 03:50:18;;;;;;;16.27;7.47;;;0.60;99.90;;;;;;5072656;28;20025;-44
2023/12/02 03:52:44;;;;;;;16.10;7.72;;;0.60;99.90;;;;;;5072721;28;20050;-48
2023/12/02 03:55:10;;;;;;;17.35;7.18;;;0.60;99.90;;;;;;5072327;28;20082;-47
2023/12/02 03:57:36;;;;;;;16.00;7.50;;;0.60;99.90;;;;;;5072327;28;20020;-49
2023/12/02 04:00:10;;;;;;;15.63;7.15;;;0.60;99.90;;;;;;5072326;28;20024;-48
2023/12/02 04:02:37;;;;;;;16.40;7.07;;;0.70;99.90;;;;;;5072373;28;20073;-45
2023/12/02 04:05:08;;;;;;;14.43;6.88;;;0.60;99.90;;;;;;5071377;28;20013;-45
2023/12/02 04:07:34;;;;;;;18.00;8.07;;;0.70;99.90;;;;;;5072068;28;20358;-51
2023/12/02 04:09:59;;;;;;;18.65;7.50;;;0.70;99.90;;;;;;5071607;28;20663;-50
2023/12/02 04:12:25;;;;;;;20.40;8.45;;;0.70;99.90;;;;;;5072161;28;20099;-44
2023/12/02 04:14:50;;;;;;;18.08;8.27;;;0.70;99.90;;;;;;5054049;28;20067;-55
2023/12/02 04:17:17;;;;;;;11.95;6.40;;;0.70;99.90;;;;;;5071895;28;20032;-50
2023/12/02 04:19:43;;;;;;;15.40;7.22;;;0.70;99.90;;;;;;5070858;28;20087;-44
2023/12/02 04:22:08;;;;;;;15.20;6.95;;;0.70;99.90;;;;;;5071005;28;20067;-49
2023/12/02 04:24:34;;;;;;;19.98;8.35;;;0.70;99.90;;;;;;5071637;28;20028;-46
2023/12/02 04:27:00;;;;;;;15.02;7.68;;;0.80;99.90;;;;;;5071804;28;20107;-49
2023/12/02 04:29:26;;;;;;;13.25;6.90;;;0.80;99.90;;;;;;5071756;28;20025;-48
2023/12/02 04:31:51;;;;;;;17.00;6.93;;;0.80;99.90;;;;;;5070520;28;20508;-44
2023/12/02 04:34:17;;;;;;;15.00;6.68;;;0.80;99.90;;;;;;5053759;28;20028;-49
2023/12/02 04:36:43;;;;;;;12.88;6.40;;;0.80;99.90;;;;;;5071396;28;20036;-44
2023/12/02 04:39:11;;;;;;;15.93;7.68;;;0.80;99.90;;;;;;5071560;28;20023;-47
2023/12/02 04:41:37;;;;;;;13.25;6.85;;;0.80;99.90;;;;;;5057922;28;20385;-50
2023/12/02 04:44:03;;;;;;;18.63;7.22;;;0.70;99.90;;;;;;5071382;28;20032;-47
2023/12/02 04:46:29;;;;;;;14.65;7.35;;;0.80;99.90;;;;;;5071393;28;20024;-50
2023/12/02 04:48:55;;;;;;;13.57;6.50;;;0.80;99.90;;;;;;5071582;28;20054;-49
2023/12/02 04:51:20;;;;;;;18.75;7.63;;;0.70;99.90;;;;;;5071199;28;20059;-49
2023/12/02 04:53:46;;;;;;;19.80;7.95;;;0.70;99.90;;;;;;5071637;28;20052;-47
2023/12/02 04:56:11;;;;;;;15.35;7.80;;;0.70;99.90;;;;;;5071249;28;20504;-51
2023/12/02 04:58:37;;;;;;;13.50;6.82;;;0.70;99.90;;;;;;5071142;28;20538;-46
2023/12/02 05:01:04;;;;;;;14.50;6.55;;;0.70;99.90;;;;;;5071320;28;20028;-44
2023/12/02 05:03:29;;;;;;;17.55;7.63;;;0.80;99.90;;;;;;5071039;28;20056;-48
2023/12/02 05:05:55;;;;;;;14.23;7.43;;;0.80;99.90;;;;;;5071055;28;20051;-46
2023/12/02 05:08:21;;;;;;;14.82;6.90;;;0.80;99.90;;;;;;5070878;28;20029;-48
2023/12/02 05:10:46;;;;;;;15.77;6.93;;;0.80;99.90;;;;;;5071212;28;20047;-44
2023/12/02 05:13:12;;;;;;;16.27;6.72;;;0.80;99.90;;;;;;5070560;28;20042;-43
2023/12/02 05:15:39;;;;;;;11.88;5.57;;;0.70;99.90;;;;;;5071073;28;20031;-47
2023/12/02 05:18:04;;;;;;;12.75;5.80;;;0.80;99.90;;;;;;5071080;28;20067;-45
2023/12/02 05:20:30;;;;;;;12.98;6.53;;;0.80;99.90;;;;;;5070772;28;20048;-48
2023/12/02 05:22:56;;;;;;;21.55;7.93;;;0.80;99.90;;;;;;5070959;28;20028;-46
2023/12/02 05:25:21;;;;;;;17.10;6.85;;;0.80;99.90;;;;;;5070742;28;20103;-44
2023/12/02 05:27:47;;;;;;;15.40;6.82;;;0.80;99.90;;;;;;5070713;28;20013;-50
2023/12/02 05:30:13;;;;;;;12.77;6.53;;;0.80;99.90;;;;;;5070633;28;20036;-52
2023/12/02 05:32:38;;;;;;;19.35;6.88;;;0.80;99.90;;;;;;5070569;28;20155;-50
2023/12/02 05:35:05;;;;;;;16.23;7.07;;;0.80;99.90;;;;;;5070636;28;20047;-50
2023/12/02 05:37:31;;;;;;;14.30;7.20;;;0.80;99.90;;;;;;5070364;28;20048;-48
2023/12/02 05:39:57;;;;;;;12.38;6.18;;;0.80;99.90;;;;;;5052819;28;20020;-54
2023/12/02 05:42:23;;;;;;;16.77;6.93;;;0.90;99.90;;;;;;5070319;28;20377;-52
2023/12/02 05:44:49;;;;;;;18.63;7.40;;;0.90;99.90;;;;;;5070248;28;20012;-43
2023/12/02 05:47:15;;;;;;;13.35;6.70;;;0.90;99.90;;;;;;5070586;28;20058;-45
2023/12/02 05:49:41;;;;;;;13.60;6.97;;;0.80;99.90;;;;;;5070191;28;20032;-45
2023/12/02 05:52:07;;;;;;;16.88;6.60;;;0.90;99.90;;;;;;5070337;28;20024;-44
2023/12/02 05:54:34;;;;;;;16.67;7.18;;;0.80;99.90;;;;;;5070244;28;20017;-46
2023/12/02 05:57:00;;;;;;;16.58;6.40;;;0.80;99.90;;;;;;5070220;28;20064;-48
2023/12/02 05:59:25;;;;;;;13.02;6.60;;;0.80;99.90;;;;;;5069644;28;20059;-51
2023/12/02 06:01:52;;;;;;;14.25;6.25;;;0.70;99.90;;;;;;5070023;28;20469;-53
2023/12/02 06:04:17;;;;;;;14.32;6.15;;;0.70;99.90;;;;;;5052449;28;20024;-46
2023/12/02 06:06:47;;;;;;;13.05;5.88;;;0.80;99.90;;;;;;5070100;28;20374;-55
2023/12/02 06:09:13;;;;;;;13.35;6.15;;;0.70;99.90;;;;;;5070260;28;20023;-53
2023/12/02 06:11:39;;;;;;;11.10;5.75;;;0.70;99.90;;;;;;5070045;28;20025;-51
2023/12/02 06:14:05;;;;;;;11.50;5.65;;;0.70;99.90;;;;;;5035343;28;20021;-50
2023/12/02 06:16:31;;;;;;;10.57;5.05;;;0.70;99.90;;;;;;5070076;28;20056;-48
2023/12/02 06:18:56;;;;;;;11.70;6.10;;;0.70;99.90;;;;;;5070009;28;20063;-46
2023/12/02 06:21:22;;;;;;;13.52;6.00;;;0.70;99.90;;;;;;5070210;28;20060;-49
2023/12/02 06:23:48;;;;;;;12.05;5.90;;;0.70;99.90;;;;;;5051846;28;20017;-50
2023/12/02 06:26:13;;;;;;;14.18;6.32;;;0.70;99.90;;;;;;5070042;28;20078;-56
2023/12/02 06:28:39;;;;;;;11.70;5.07;;;0.70;99.90;;;;;;5069802;28;20059;-53
2023/12/02 06:31:12;;;;;;;16.33;6.30;;;0.70;99.90;;;;;;5070069;28;20461;-47
2023/12/02 06:33:38;;;;;;;15.60;6.22;;;0.70;99.90;;;;;;5069841;28;20044;-44
2023/12/02 06:36:04;;;;;;;14.57;6.47;;;0.70;99.90;;;;;;5070382;28;20036;-48
2023/12/02 06:38:30;;;;;;;12.93;5.82;;;0.70;99.90;;;;;;5069788;28;20048;-46
2023/12/02 06:40:55;;;;;;;11.07;4.75;;;0.60;99.90;;;;;;5069885;28;20028;-44
2023/12/02 06:43:21;;;;;;;10.57;5.03;;;0.60;99.90;;;;;;5069842;28;20024;-55
2023/12/02 06:45:47;;;;;;;12.77;5.38;;;0.60;99.90;;;;;;5069820;28;20425;-49
2023/12/02 06:48:12;;;;;;;15.45;5.90;;;0.60;99.90;;;;;;5068414;28;20032;-48
2023/12/02 06:50:38;;;;;;;12.48;5.50;;;0.60;99.90;;;;;;5069207;28;20379;-52
2023/12/02 06:53:04;;;;;;;14.45;5.60;;;0.60;99.90;;;;;;5069472;28;20360;-44
2023/12/02 06:55:31;;;;;;;16.83;6.07;;;0.60;99.90;;;;;;5068422;28;20420;-43
2023/12/02 06:57:58;;;;;;;15.57;5.63;;;0.60;99.90;;;;;;5053104;28;20170;-47
2023/12/02 07:00:25;;;;;;;12.45;5.45;;;0.70;99.90;;;;;;5053051;28;20559;-52
2023/12/02 07:02:51;;;;;;;10.60;5.15;;;0.60;99.90;;;;;;5053204;28;20064;-49
2023/12/02 07:05:16;;;;;;;10.40;4.70;;;0.60;99.90;;;;;;5054870;28;20029;-54
2023/12/02 07:07:42;;;;;;;12.70;5.15;;;0.60;99.90;;;;;;5062327;28;20041;-48
2023/12/02 07:10:09;;;;;;;12.45;5.88;;;0.60;99.90;;;;;;5053138;28;20009;-42
2023/12/02 07:12:35;;;;;;;11.35;6.28;;;0.70;99.90;;;;;;5052998;28;20029;-46
2023/12/02 07:15:01;;;;;;;12.13;6.05;;;0.60;99.90;;;;;;5045669;28;20119;-47
2023/12/02 07:17:27;;;;;;;12.88;5.30;;;0.60;99.90;;;;;;5053209;28;20116;-50
2023/12/02 07:19:53;;;;;;;10.48;4.90;;;0.60;99.90;;;;;;5053154;28;20373;-51
2023/12/02 07:22:19;;;;;;;11.65;6.30;;;0.60;99.90;;;;;;5053198;28;20029;-49
2023/12/02 07:24:44;;;;;;;14.93;6.30;;;0.60;99.90;;;;;;5052807;28;20538;-46
2023/12/02 07:27:10;;;;;;;15.10;6.03;;;0.60;99.90;;;;;;5052953;28;20506;-47
2023/12/02 07:29:37;;;;;;;12.90;6.00;;;0.70;99.90;;;;;;5052895;28;20056;-52
2023/12/02 07:32:03;;;;;;;15.38;6.20;;;0.70;99.90;;;;;;5053127;28;20082;-49
2023/12/02 07:34:29;;;;;;;18.58;5.97;;;0.70;99.90;;;;;;5052924;28;20399;-52
2023/12/02 07:36:55;;;;;;;15.80;6.70;;;0.70;99.90;;;;;;5052449;28;20139;-54
2023/12/02 07:39:20;;;;;;;14.73;6.10;;;0.70;99.90;;;;;;5068239;28;20017;-52
2023/12/02 07:41:46;;;;;;;12.90;6.03;;;0.70;99.90;;;;;;5072848;28;20096;-50
2023/12/02 07:44:11;;;;;;;15.20;6.32;;;0.70;99.90;;;;;;5072790;28;20013;-43
2023/12/02 07:46:37;;;;;;;15.43;6.57;;;0.70;99.90;;;;;;5072554;28;20016;-52
2023/12/02 07:49:03;;;;;;;12.77;5.78;;;0.70;99.90;;;;;;5061909;28;20492;-46
2023/12/02 07:51:29;;;;;;;16.65;6.18;;;0.60;99.90;;;;;;5059402;28;20032;-50
2023/12/02 07:53:54;;;;;;;12.50;5.32;;;0.60;99.90;;;;;;5057855;28;20021;-45
2023/12/02 07:56:20;;;;;;;16.25;6.18;;;0.60;99.90;;;;;;5057559;28;20473;-43
2023/12/02 07:58:45;;;;;;;17.80;6.45;;;0.60;99.90;;;;;;5052436;28;20013;-46
2023/12/02 08:01:11;;;;;;;14.23;5.38;;;0.60;99.90;;;;;;5058759;28;20203;-43
2023/12/02 08:03:37;;;;;;;14.48;5.53;;;0.60;99.90;;;;;;5052809;28;20071;-44
2023/12/02 08:06:02;;;;;;;12.07;5.10;;;0.60;99.90;;;;;;5060483;28;20075;-51
2023/12/02 08:08:28;;;;;;;10.13;4.55;;;0.70;99.90;;;;;;5052242;28;20029;-52
2023/12/02 08:10:55;;;;;;;11.23;5.07;;;0.70;99.90;;;;;;5052595;28;20377;-43
2023/12/02 08:13:21;;;;;;;14.68;5.47;;;0.70;99.90;;;;;;5056321;28;20040;-45
2023/12/02 08:15:47;;;;;;;11.15;5.63;;;0.70;99.90;;;;;;5052150;28;20042;-52
2023/12/02 08:18:12;;;;;;;16.55;7.05;;;0.70;99.90;;;;;;5054603;28;20486;-46
2023/12/02 08:20:38;;;;;;;12.50;6.50;;;0.80;99.90;;;;;;5065299;28;20039;-49
2023/12/02 08:23:03;;;;;;;14.45;6.15;;;0.70;99.90;;;;;;5052046;28;20036;-55
2023/12/02 08:25:29;;;;;;;13.07;5.50;;;0.80;99.90;;;;;;5051823;28;20402;-49
2023/12/02 08:27:55;;;;;;;14.73;5.55;;;0.80;99.90;;;;;;5051799;28;20458;-46
2023/12/02 08:30:20;;;;;;;13.25;6.05;;;0.70;99.90;;;;;;5051751;28;20036;-49
2023/12/02 08:32:46;;;;;;;14.43;4.95;;;0.80;99.90;;;;;;5051790;28;20028;-50
2023/12/02 08:35:12;;;;;;;11.40;4.95;;;0.70;99.90;;;;;;5047254;28;20097;-44
2023/12/02 08:37:37;;;;;;;11.52;6.20;;;0.80;99.90;;;;;;5053283;28;20036;-44
2023/12/02 08:40:05;;;;;;;13.13;5.75;;;0.80;99.90;;;;;;5071311;28;20055;-49
2023/12/02 08:42:31;;;;;;;15.15;6.22;;;0.90;99.90;;;;;;5071423;28;20342;-46
2023/12/02 08:44:56;;;;;;;19.17;6.13;;;1.00;99.90;;;;;;5071424;28;20034;-47
2023/12/02 08:47:22;;;;;;;13.55;5.80;;;1.00;99.90;;;;;;5071543;28;20442;-48
2023/12/02 08:49:48;;;;;;;10.30;5.20;;;1.00;99.90;;;;;;5069495;28;20027;-47
2023/12/02 08:52:13;;;;;;;13.32;5.85;;;1.00;99.90;;;;;;5069515;28;20373;-44
2023/12/02 08:54:39;;;;;;;10.45;4.95;;;1.00;99.90;;;;;;5069556;28;20029;-46
2023/12/02 08:57:05;;;;;;;13.88;6.03;;;1.00;99.90;;;;;;5069110;28;20036;-48
2023/12/02 08:59:31;;;;;;;12.90;5.25;;;1.10;99.90;;;;;;5069082;28;20024;-52
2023/12/02 09:01:56;;;;;;;11.50;5.28;;;1.10;99.90;;;;;;5068970;28;20435;-52
2023/12/02 09:04:22;;;;;;;13.75;5.70;;;1.10;99.90;;;;;;5070124;28;20025;-44
2023/12/02 09:06:48;;;;;;;12.57;5.78;;;1.20;99.90;;;;;;5070962;28;20062;-44
2023/12/02 09:09:14;;;;;;;16.23;6.32;;;1.10;99.90;;;;;;5071131;28;20024;-43
2023/12/02 09:11:41;;;;;;;10.05;4.97;;;1.10;99.90;;;;;;5052922;28;20033;-47
2023/12/02 09:14:07;;;;;;;12.85;5.47;;;1.00;99.90;;;;;;5070988;28;20028;-50
2023/12/02 09:16:32;;;;;;;10.15;4.63;;;1.00;99.90;;;;;;5070566;28;20032;-44
2023/12/02 09:18:58;;;;;;;11.68;5.20;;;1.10;99.90;;;;;;5070498;28;20620;-55
2023/12/02 09:21:42;;;;;;;14.10;5.10;;;1.20;99.90;;;;;;5053068;28;20039;-53
2023/12/02 09:24:37;;;;;;;17.90;5.38;;;1.20;99.90;;;;;;5052088;28;20017;-44
2023/12/02 09:27:05;;;;;;;15.10;6.28;;;1.20;99.90;;;;;;5050751;28;20028;-52
2023/12/02 09:29:43;;;;;;;12.68;5.85;;;1.30;99.90;;;;;;5050765;28;20025;-47
2023/12/02 09:32:36;;;;;;;12.48;5.20;;;1.30;99.90;;;;;;5050710;28;20040;-51
2023/12/02 09:35:03;;;;;;;10.60;4.90;;;1.40;99.90;;;;;;5050999;28;20036;-45
2023/12/02 09:37:46;;;;;;;9.30;4.63;;;1.40;99.90;;;;;;5050642;28;20053;-48
2023/12/02 09:40:21;;;;;;;14.70;6.03;;;1.50;99.90;;;;;;5070662;28;20073;-44
2023/12/02 09:43:02;;;;;;;12.48;5.75;;;1.50;99.90;;;;;;5070402;28;20085;-50
2023/12/02 09:45:37;;;;;;;9.70;4.43;;;1.60;99.90;;;;;;5070469;28;20024;-44
2023/12/02 09:48:13;;;;;;;10.25;4.63;;;1.60;99.90;;;;;;5060278;28;20116;-44
2023/12/02 09:50:54;;;;;;;12.05;5.43;;;1.50;99.90;;;;;;5061244;28;20043;-46
2023/12/02 09:53:39;;;;;;;12.75;5.40;;;1.70;99.90;;;;;;5058459;28;20099;-47
2023/12/02 09:56:20;;;;;;;10.73;5.63;;;1.70;99.90;;;;;;5060365;28;20068;-45
2023/12/02 09:58:46;;;;;;;10.32;5.07;;;1.60;99.90;;;;;;5050150;28;20025;-45
2023/12/02 10:01:28;;;;;;;11.95;4.97;;;1.60;99.90;;;;;;5060977;28;20503;-47
2023/12/02 10:04:06;;;;;;;10.32;4.95;;;1.70;99.90;;;;;;5056863;28;20405;-44
2023/12/02 10:07:10;;;;;;;11.55;4.93;;;1.70;99.90;;;;;;5050111;28;20090;-47
2023/12/02 10:10:13;;;;;;;12.90;4.95;;;1.70;99.90;;;;;;5058977;28;20032;-49
2023/12/02 10:12:41;;;;;;;11.48;5.70;;;1.60;99.90;;;;;;5049975;28;20053;-50
2023/12/02 10:15:11;;;;;;;11.70;5.13;;;1.70;99.90;;;;;;5050022;28;20025;-49
2023/12/02 10:17:41;;;;;;;12.55;5.93;;;1.70;99.90;;;;;;5049770;28;20446;-50
2023/12/02 10:20:12;;;;;;;12.63;5.38;;;1.70;99.90;;;;;;5049875;28;20032;-47
2023/12/02 10:22:51;;;;;;;11.93;5.57;;;1.70;99.90;;;;;;5054168;28;20028;-46
2023/12/02 10:25:32;;;;;;;15.38;6.78;;;1.90;99.90;;;;;;5069807;28;20021;-44
2023/12/02 10:28:07;;;;;;;23.80;9.48;;;1.90;99.90;;;;;;5065585;28;20021;-46
2023/12/02 10:30:36;;;;;;;22.55;9.30;;;2.00;99.90;;;;;;5073008;28;20024;-44
2023/12/02 10:33:09;;;;;;;21.20;8.70;;;2.00;99.90;;;;;;5073937;28;20070;-49
2023/12/02 10:35:46;;;;;;;15.35;7.18;;;2.10;99.90;;;;;;5074201;28;20032;-48
2023/12/02 10:38:25;;;;;;;14.90;7.13;;;2.20;99.90;;;;;;5073888;28;20070;-51
2023/12/02 10:41:16;;;;;;;16.73;9.03;;;2.20;99.90;;;;;;5056258;28;20024;-47
2023/12/02 10:43:44;;;;;;;21.40;8.95;;;2.20;99.90;;;;;;5073523;28;20033;-44
2023/12/02 10:46:11;;;;;;;16.45;6.85;;;2.10;99.90;;;;;;5058948;28;20049;-48
2023/12/02 10:48:41;;;;;;;20.58;9.45;;;2.10;99.90;;;;;;5053675;28;20481;-48
2023/12/02 10:51:09;;;;;;;17.90;8.52;;;2.00;99.90;;;;;;5053639;28;20048;-48
2023/12/02 10:53:36;;;;;;;12.23;6.85;;;2.10;99.90;;;;;;5052450;28;20068;-46
2023/12/02 10:56:10;;;;;;;10.90;6.03;;;2.30;99.90;;;;;;5053137;28;20090;-49
2023/12/02 10:58:39;;;;;;;11.60;6.18;;;2.40;99.90;;;;;;5053498;28;20525;-46
2023/12/02 11:01:09;;;;;;;12.63;6.85;;;2.40;99.90;;;;;;5053724;28;20029;-49
2023/12/02 11:03:46;;;;;;;17.05;9.57;;;2.40;99.90;;;;;;5053097;28;20615;-46
2023/12/02 11:06:21;;;;;;;17.00;8.27;;;2.30;99.90;;;;;;5052567;28;20017;-47
2023/12/02 11:09:13;;;;;;;13.40;5.05;;;2.40;99.90;;;;;;5052241;28;20067;-44
2023/12/02 11:11:43;;;;;;;13.63;6.10;;;2.50;99.90;;;;;;5045102;28;20063;-50
2023/12/02 11:14:20;;;;;;;12.82;6.28;;;2.50;99.90;;;;;;5052943;28;20050;-50
2023/12/02 11:17:12;;;;;;;12.55;6.30;;;2.30;99.90;;;;;;5052355;28;20033;-44
2023/12/02 11:20:06;;;;;;;13.77;7.03;;;2.40;99.90;;;;;;5053224;28;20029;-44
2023/12/02 11:22:50;;;;;;;14.13;6.85;;;2.40;99.90;;;;;;5053090;28;20048;-50
2023/12/02 11:25:53;;;;;;;11.45;5.95;;;2.50;99.90;;;;;;5052371;28;20174;-49
2023/12/02 11:28:36;;;;;;;13.35;6.57;;;2.50;99.90;;;;;;5002173;28;20030;-48
2023/12/02 11:31:01;;;;;;;16.73;7.38;;;2.50;99.90;;;;;;5050499;28;20440;-46
2023/12/02 11:33:46;;;;;;;12.75;5.72;;;2.60;99.90;;;;;;5059148;28;20067;-46
2023/12/02 11:36:21;;;;;;;14.63;6.38;;;2.60;99.90;;;;;;5056188;28;20063;-49
2023/12/02 11:39:08;;;;;;;14.45;6.57;;;2.70;99.90;;;;;;5069165;28;20040;-47
2023/12/02 11:42:00;;;;;;;16.48;7.72;;;2.70;99.90;;;;;;5040539;28;20040;-46
2023/12/02 11:44:39;;;;;;;17.67;7.65;;;2.80;99.90;;;;;;5068844;28;20071;-47
2023/12/02 11:47:04;;;;;;;16.58;8.23;;;2.80;99.90;;;;;;5061604;28;20024;-46
2023/12/02 11:49:52;;;;;;;17.95;8.68;;;2.80;99.90;;;;;;5070454;28;20031;-44
2023/12/02 11:52:49;;;;;;;25.27;12.55;;;2.90;99.90;;;;;;5055289;28;20043;-44
2023/12/02 11:55:35;;;;;;;21.60;8.98;;;2.90;99.90;;;;;;5061567;28;20025;-46
2023/12/02 11:58:24;;;;;;;23.17;7.93;;;2.80;99.90;;;;;;5050823;28;20047;-46
2023/12/02 12:01:14;;;;;;;18.80;7.18;;;2.80;99.90;;;;;;5059957;28;20017;-43
2023/12/02 12:03:49;;;;;;;22.13;8.65;;;2.80;99.90;;;;;;5070280;28;20110;-52
2023/12/02 12:06:36;;;;;;;20.13;9.00;;;2.70;99.90;;;;;;5058244;28;20446;-44
2023/12/02 12:09:17;;;;;;;18.05;8.75;;;2.70;99.90;;;;;;5053953;28;20145;-59
2023/12/02 12:11:44;;;;;;;14.75;7.20;;;2.80;99.90;;;;;;5058300;28;20020;-44
2023/12/02 12:14:12;;;;;;;18.15;8.30;;;2.80;99.90;;;;;;5056469;28;20021;-49
2023/12/02 12:16:38;;;;;;;19.83;8.70;;;2.90;99.90;;;;;;5062743;28;20402;-46
2023/12/02 12:19:04;;;;;;;20.38;10.10;;;2.90;99.90;;;;;;5058842;28;20100;-48
2023/12/02 12:21:29;;;;;;;20.40;9.57;;;3.00;99.90;;;;;;5052034;28;20033;-50
2023/12/02 12:23:55;;;;;;;15.90;7.90;;;3.00;99.90;;;;;;5052423;28;20032;-56
2023/12/02 12:26:21;;;;;;;14.82;7.22;;;3.00;99.90;;;;;;5051867;28;20029;-45
2023/12/02 12:28:47;;;;;;;16.15;7.88;;;3.10;99.90;;;;;;5060873;28;20077;-53
2023/12/02 12:31:13;;;;;;;20.13;9.20;;;3.00;99.90;;;;;;5066583;28;20028;-51
2023/12/02 12:33:39;;;;;;;18.00;8.10;;;2.90;99.90;;;;;;5061776;28;20130;-44
2023/12/02 12:36:09;;;;;;;17.90;8.20;;;3.00;99.90;;;;;;5057353;28;20041;-47
2023/12/02 12:38:36;;;;;;;;;;;3.10;99.90;;;;;;5067575;28;20049;-49
2023/12/02 12:41:02;;;;;;;19.90;8.60;;;3.20;99.90;;;;;;5058037;28;19909;-52
2023/12/02 12:43:28;;;;;;;22.00;8.82;;;3.20;99.90;;;;;;5051622;28;20478;-46
2023/12/02 12:45:54;;;;;;;15.75;7.18;;;3.20;99.90;;;;;;5051635;28;20033;-45
2023/12/02 12:48:26;;;;;;;18.05;8.18;;;3.10;99.90;;;;;;5051315;28;20347;-49
2023/12/02 12:50:57;;;;;;;14.82;7.15;;;3.10;99.90;;;;;;5063832;28;20420;-54
2023/12/02 12:53:35;;;;;;;13.63;7.18;;;3.30;99.90;;;;;;5063456;28;20098;-48